Asgard — FR35382 — position and weather

sailwx.info

Track history (hours):
 
Tides and Currents Weather Stations Pressure Air Temp Water Temp Dewpoint Dewpoint Depression Visibility Wind Speed Wind Dir Waves Ship Positions

Asgard

Last reported at 2018-Mar-10 17:42 UTC. Time now 2018-Jun-23 12:22 UTC.
Position N 14°28' W 060°52'.
Warning: this ship's position is months out of date.

Length 14 m.

Type: Pleasure craft. MMSI: 227737180.

Date/timePositionNaut miles runAvg speedWind from/ knotsBaromVisibWave heightAir tempDewpointWater temp
2018-Mar-10 17:42N 14°28' W 060°52'0 0.2
2018-Mar-10 17:30N 14°28' W 060°52'2 3.4
2018-Mar-10 16:59N 14°27' W 060°53'2 4.6
2018-Mar-10 16:28N 14°25' W 060°54'  
2018-Mar-05 00:32N 14°28' W 060°52'0 0.0
2018-Mar-04 17:33N 14°28' W 060°52'0 0.0
2018-Mar-04 17:24N 14°28' W 060°52'1 1.3
2018-Mar-04 16:57N 14°28' W 060°52'2 5.1
2018-Mar-04 16:30N 14°26' W 060°54'3 5.0
2018-Mar-04 15:56N 14°23' W 060°55'  
2018-Mar-01 14:28N 14°22' W 060°55'4 7.7
2018-Mar-01 14:00N 14°25' W 060°54'1 2.4
2018-Mar-01 13:29N 14°26' W 060°53'0 0.0
2018-Mar-01 12:58N 14°26' W 060°53'0 0.0
2018-Mar-01 12:29N 14°26' W 060°53'0 0.0
2018-Mar-01 11:58N 14°26' W 060°53'0 0.0
2018-Mar-01 11:30N 14°26' W 060°53'0 0.0
2018-Mar-01 10:58N 14°26' W 060°53'0 0.0
2018-Mar-01 10:28N 14°26' W 060°53'0 0.0
2018-Mar-01 09:58N 14°26' W 060°53'0 0.0
2018-Mar-01 09:30N 14°26' W 060°53'0 0.0
2018-Mar-01 08:55N 14°26' W 060°53'0 0.0
2018-Mar-01 08:29N 14°26' W 060°53'0 0.0
2018-Mar-01 07:58N 14°26' W 060°53'0 0.0
2018-Mar-01 07:29N 14°26' W 060°53'0 0.0
2018-Mar-01 06:59N 14°26' W 060°53'0 0.0
2018-Mar-01 06:23N 14°26' W 060°53'0 0.0
2018-Mar-01 05:59N 14°26' W 060°53'0 0.0
2018-Mar-01 05:29N 14°26' W 060°53'0 0.0
2018-Mar-01 04:59N 14°26' W 060°53'0 0.0
2018-Mar-01 04:28N 14°26' W 060°53'0 0.0
2018-Mar-01 03:59N 14°26' W 060°53'0 0.0
2018-Mar-01 03:28N 14°26' W 060°53'0 0.0
2018-Mar-01 02:59N 14°26' W 060°53'0 0.0
2018-Mar-01 02:29N 14°26' W 060°53'0 0.0
2018-Mar-01 01:59N 14°26' W 060°53'0 0.0
2018-Mar-01 01:29N 14°26' W 060°53'0 0.0
2018-Mar-01 00:58N 14°26' W 060°53'0 0.0
2018-Mar-01 00:29N 14°26' W 060°53'0 0.0
2018-Feb-28 23:59N 14°26' W 060°53'0 0.0
2018-Feb-28 23:30N 14°26' W 060°53'0 0.0
2018-Feb-28 22:59N 14°26' W 060°53'0 0.0
2018-Feb-28 22:29N 14°26' W 060°53'0 0.0
2018-Feb-28 22:00N 14°26' W 060°53'0 0.0
2018-Feb-28 21:26N 14°26' W 060°53'0 0.0
2018-Feb-28 20:57N 14°26' W 060°53'0 0.8
2018-Feb-28 20:28N 14°27' W 060°54'2 4.3
2018-Feb-28 19:59N 14°28' W 060°52'  
Track history (hours):
 
Tides and Currents Weather Stations Pressure Air Temp Water Temp Dewpoint Dewpoint Depression Visibility Wind Speed Wind Dir Waves Ship Positions

Asgard

Last reported at 2018-Mar-10 17:42 UTC. Time now 2018-Jun-23 12:22 UTC.
Position N 14°28' W 060°52'.
Warning: this ship's position is months out of date.

Length 14 m.

Type: Pleasure craft. MMSI: 227737180.

Date/timePositionNaut miles runAvg speedWind from/ knotsBaromVisibWave heightAir tempDewpointWater temp
2018-Mar-10 17:42N 14°28' W 060°52'0 0.2
2018-Mar-10 17:30N 14°28' W 060°52'2 3.4
2018-Mar-10 16:59N 14°27' W 060°53'2 4.6
2018-Mar-10 16:28N 14°25' W 060°54'  
2018-Mar-05 00:32N 14°28' W 060°52'0 0.0
2018-Mar-04 17:33N 14°28' W 060°52'0 0.0
2018-Mar-04 17:24N 14°28' W 060°52'1 1.3
2018-Mar-04 16:57N 14°28' W 060°52'2 5.1
2018-Mar-04 16:30N 14°26' W 060°54'3 5.0
2018-Mar-04 15:56N 14°23' W 060°55'  
2018-Mar-01 14:28N 14°22' W 060°55'4 7.7
2018-Mar-01 14:00N 14°25' W 060°54'1 2.4
2018-Mar-01 13:29N 14°26' W 060°53'0 0.0
2018-Mar-01 12:58N 14°26' W 060°53'0 0.0
2018-Mar-01 12:29N 14°26' W 060°53'0 0.0
2018-Mar-01 11:58N 14°26' W 060°53'0 0.0
2018-Mar-01 11:30N 14°26' W 060°53'0 0.0
2018-Mar-01 10:58N 14°26' W 060°53'0 0.0
2018-Mar-01 10:28N 14°26' W 060°53'0 0.0
2018-Mar-01 09:58N 14°26' W 060°53'0 0.0
2018-Mar-01 09:30N 14°26' W 060°53'0 0.0
2018-Mar-01 08:55N 14°26' W 060°53'0 0.0
2018-Mar-01 08:29N 14°26' W 060°53'0 0.0
2018-Mar-01 07:58N 14°26' W 060°53'0 0.0
2018-Mar-01 07:29N 14°26' W 060°53'0 0.0
2018-Mar-01 06:59N 14°26' W 060°53'0 0.0
2018-Mar-01 06:23N 14°26' W 060°53'0 0.0
2018-Mar-01 05:59N 14°26' W 060°53'0 0.0
2018-Mar-01 05:29N 14°26' W 060°53'0 0.0
2018-Mar-01 04:59N 14°26' W 060°53'0 0.0
2018-Mar-01 04:28N 14°26' W 060°53'0 0.0
2018-Mar-01 03:59N 14°26' W 060°53'0 0.0
2018-Mar-01 03:28N 14°26' W 060°53'0 0.0
2018-Mar-01 02:59N 14°26' W 060°53'0 0.0
2018-Mar-01 02:29N 14°26' W 060°53'0 0.0
2018-Mar-01 01:59N 14°26' W 060°53'0 0.0
2018-Mar-01 01:29N 14°26' W 060°53'0 0.0
2018-Mar-01 00:58N 14°26' W 060°53'0 0.0
2018-Mar-01 00:29N 14°26' W 060°53'0 0.0
2018-Feb-28 23:59N 14°26' W 060°53'0 0.0
2018-Feb-28 23:30N 14°26' W 060°53'0 0.0
2018-Feb-28 22:59N 14°26' W 060°53'0 0.0
2018-Feb-28 22:29N 14°26' W 060°53'0 0.0
2018-Feb-28 22:00N 14°26' W 060°53'0 0.0
2018-Feb-28 21:26N 14°26' W 060°53'0 0.0
2018-Feb-28 20:57N 14°26' W 060°53'0 0.8
2018-Feb-28 20:28N 14°27' W 060°54'2 4.3
2018-Feb-28 19:59N 14°28' W 060°52'  

Dump ship's entire track history